createdAt,value
2022-08-26T00:01:55.950Z,68.48
2022-08-26T00:04:25.181Z,67.54
2022-08-26T00:06:53.371Z,66.69
2022-08-26T00:09:22.196Z,66.89
2022-08-26T00:11:50.096Z,66.99
2022-08-26T00:14:18.827Z,67.91
2022-08-26T00:16:48.991Z,66.62
2022-08-26T00:19:18.127Z,66.93
2022-08-26T00:21:45.975Z,67.79
2022-08-26T00:24:13.681Z,67.32
2022-08-26T00:26:41.882Z,68.03
2022-08-26T00:29:10.791Z,67.23
2022-08-26T00:31:38.987Z,67.37
2022-08-26T00:34:11.127Z,68.02
2022-08-26T00:36:40.748Z,68.07
2022-08-26T00:39:10.038Z,67.11
2022-08-26T00:41:41.362Z,67.11
2022-08-26T00:44:10.307Z,67.49
2022-08-26T00:46:46.600Z,67.68
2022-08-26T00:49:19.284Z,67.61
2022-08-26T00:51:51.866Z,67.79
2022-08-26T00:54:23.595Z,67.98
2022-08-26T00:56:56.024Z,67.58
2022-08-26T00:59:25.078Z,67.39
2022-08-26T01:01:54.236Z,67.83
2022-08-26T01:04:24.585Z,67.56
2022-08-26T01:06:55.623Z,67.91
2022-08-26T01:09:24.214Z,67.64
2022-08-26T01:11:56.557Z,67.33
2022-08-26T01:14:27.837Z,67.22
2022-08-26T01:16:55.489Z,67.16
2022-08-26T01:19:30.513Z,67.71
2022-08-26T01:22:02.389Z,68.07
2022-08-26T01:24:32.214Z,67.29
2022-08-26T01:27:05.505Z,67.37
2022-08-26T01:29:36.040Z,68.01
2022-08-26T01:32:05.512Z,68.39
2022-08-26T01:34:36.176Z,67.63
2022-08-26T01:37:11.716Z,67.66
2022-08-26T01:39:48.391Z,68.36
2022-08-26T01:42:17.730Z,68.35
2022-08-26T01:44:49.230Z,68.77
2022-08-26T01:47:18.363Z,68.83
2022-08-26T01:49:49.074Z,69.07
2022-08-26T01:52:27.994Z,68.50
2022-08-26T01:54:59.957Z,69.29
2022-08-26T01:57:28.205Z,68.13
2022-08-26T01:59:59.901Z,68.08
2022-08-26T02:02:27.906Z,68.60
2022-08-26T02:05:00.856Z,69.19
2022-08-26T02:07:29.667Z,68.51
2022-08-26T02:09:58.710Z,68.41
2022-08-26T02:12:26.967Z,68.16
2022-08-26T02:14:59.263Z,68.38
2022-08-26T02:17:34.805Z,69.44
2022-08-26T02:20:03.382Z,68.54
2022-08-26T02:22:31.894Z,68.69
2022-08-26T02:25:07.952Z,68.84
2022-08-26T02:27:36.634Z,68.64
2022-08-26T02:30:11.076Z,69.63
2022-08-26T02:32:40.245Z,68.70
2022-08-26T02:35:10.675Z,69.22
2022-08-26T02:37:38.641Z,69.92
2022-08-26T02:40:13.867Z,69.29
2022-08-26T02:42:42.162Z,69.29
2022-08-26T02:45:11.673Z,69.93
2022-08-26T02:47:39.277Z,69.32
2022-08-26T02:50:07.988Z,69.06
2022-08-26T02:52:35.859Z,69.22
2022-08-26T02:55:06.073Z,70.13
2022-08-26T02:57:35.265Z,70.13
2022-08-26T03:00:03.489Z,69.78
2022-08-26T03:02:31.044Z,70.05
2022-08-26T03:05:02.290Z,69.34
2022-08-26T03:07:30.534Z,69.41
2022-08-26T03:09:58.156Z,70.11
2022-08-26T03:12:26.293Z,69.28
2022-08-26T03:14:56.185Z,69.53
2022-08-26T03:17:23.853Z,69.88
2022-08-26T03:19:57.215Z,69.66
2022-08-26T03:22:25.535Z,70.10
2022-08-26T03:24:55.037Z,69.59
2022-08-26T03:27:22.686Z,69.94
2022-08-26T03:30:08.189Z,69.58
2022-08-26T03:32:41.526Z,69.56
2022-08-26T03:35:09.738Z,70.79
2022-08-26T03:37:37.619Z,70.47
2022-08-26T03:40:09.000Z,70.38
2022-08-26T03:42:37.023Z,70.06
2022-08-26T03:45:07.937Z,70.22
2022-08-26T03:47:35.801Z,70.56
2022-08-26T03:50:09.825Z,70.07
2022-08-26T03:52:43.107Z,69.98
2022-08-26T03:55:11.792Z,70.53
2022-08-26T03:57:39.431Z,69.85
2022-08-26T04:00:10.149Z,69.93
2022-08-26T04:02:38.038Z,70.37
2022-08-26T04:05:08.485Z,70.05
2022-08-26T04:07:36.782Z,70.17
2022-08-26T04:10:05.064Z,70.12
2022-08-26T04:12:32.650Z,71.33
2022-08-26T04:15:00.474Z,70.32
2022-08-26T04:17:30.406Z,70.30
2022-08-26T04:19:57.953Z,70.40
2022-08-26T04:22:27.145Z,70.48
2022-08-26T04:24:56.909Z,70.32
2022-08-26T04:27:25.022Z,70.23
2022-08-26T04:29:55.213Z,70.55
2022-08-26T04:32:23.520Z,70.33
2022-08-26T04:34:51.189Z,70.17
2022-08-26T04:37:18.888Z,70.49
2022-08-26T04:39:51.960Z,70.24
2022-08-26T04:42:26.191Z,70.46
2022-08-26T04:44:54.041Z,70.54
2022-08-26T04:47:22.207Z,71.15
2022-08-26T04:49:49.775Z,70.72
2022-08-26T04:52:18.072Z,70.63
2022-08-26T04:54:46.986Z,70.37
2022-08-26T04:57:14.695Z,70.76
2022-08-26T04:59:43.256Z,70.65
2022-08-26T05:02:11.452Z,70.63
2022-08-26T05:04:40.152Z,70.65
2022-08-26T05:07:09.549Z,70.34
2022-08-26T05:09:37.392Z,70.37
2022-08-26T05:12:07.722Z,70.44
2022-08-26T05:14:37.057Z,70.52
2022-08-26T05:17:04.897Z,70.54
2022-08-26T05:19:32.704Z,71.22
2022-08-26T05:22:00.638Z,71.31
2022-08-26T05:24:28.657Z,70.86
2022-08-26T05:26:56.741Z,70.84
2022-08-26T05:29:26.009Z,69.48
2022-08-26T05:31:53.943Z,69.76
2022-08-26T05:34:23.647Z,70.10
2022-08-26T05:36:57.974Z,69.40
2022-08-26T05:39:25.880Z,68.27
2022-08-26T05:41:53.644Z,69.21
2022-08-26T05:44:22.452Z,69.39
2022-08-26T05:46:51.590Z,70.24
2022-08-26T05:49:19.352Z,70.46
2022-08-26T05:51:47.771Z,70.32
2022-08-26T05:54:21.845Z,70.82
2022-08-26T05:56:51.217Z,70.54
2022-08-26T05:59:24.100Z,70.54
2022-08-26T06:01:55.545Z,71.00
2022-08-26T06:04:27.013Z,71.56
2022-08-26T06:06:55.599Z,70.73
2022-08-26T06:09:23.326Z,70.81
2022-08-26T06:11:51.219Z,72.10
2022-08-26T06:14:18.822Z,72.19
2022-08-26T06:16:47.351Z,72.34
2022-08-26T06:19:17.343Z,71.94
2022-08-26T06:21:54.094Z,72.06
2022-08-26T06:24:40.276Z,73.42
2022-08-26T06:27:11.393Z,73.14
2022-08-26T06:29:39.118Z,74.24
2022-08-26T06:32:07.204Z,74.23
2022-08-26T06:34:38.405Z,74.94
2022-08-26T06:37:07.383Z,74.09
2022-08-26T06:39:35.544Z,77.06
2022-08-26T06:42:10.969Z,77.03
2022-08-26T06:44:40.905Z,76.64
2022-08-26T06:47:09.226Z,74.70
2022-08-26T06:49:38.857Z,75.21
2022-08-26T06:52:08.687Z,75.08
2022-08-26T06:54:37.038Z,74.92
2022-08-26T06:57:07.122Z,74.58
2022-08-26T06:59:34.770Z,76.84
2022-08-26T07:02:02.628Z,75.89
2022-08-26T07:04:30.333Z,75.34
2022-08-26T07:07:00.205Z,75.37
2022-08-26T07:09:30.272Z,74.73
2022-08-26T07:11:58.005Z,75.88
2022-08-26T07:14:26.230Z,76.26
2022-08-26T07:16:54.545Z,76.16
2022-08-26T07:19:30.964Z,75.24
2022-08-26T07:22:03.394Z,73.24
2022-08-26T07:24:32.306Z,75.39
2022-08-26T07:27:01.783Z,75.91
2022-08-26T07:29:30.617Z,74.73
2022-08-26T07:31:58.852Z,75.86
2022-08-26T07:34:27.503Z,75.48
2022-08-26T07:36:56.834Z,74.76
2022-08-26T07:39:27.315Z,74.21
2022-08-26T07:41:55.834Z,75.08
2022-08-26T07:44:24.015Z,76.17
2022-08-26T07:46:53.199Z,75.68
2022-08-26T07:49:21.650Z,76.36
2022-08-26T07:51:49.813Z,73.25
2022-08-26T07:54:17.743Z,75.02
2022-08-26T07:56:48.505Z,74.16
2022-08-26T07:59:17.138Z,75.29
2022-08-26T08:01:45.532Z,74.25
2022-08-26T08:04:14.009Z,73.54
2022-08-26T08:06:43.900Z,72.75
2022-08-26T08:09:12.689Z,74.01
2022-08-26T08:11:41.521Z,73.02
2022-08-26T08:14:12.587Z,74.25
2022-08-26T08:16:46.056Z,74.61
2022-08-26T08:19:18.645Z,74.35
2022-08-26T08:21:47.054Z,73.18
2022-08-26T08:24:14.635Z,73.19
2022-08-26T08:26:42.513Z,73.36
2022-08-26T08:29:10.315Z,71.38
2022-08-26T08:31:56.924Z,73.41
2022-08-26T08:34:27.956Z,74.06
2022-08-26T08:36:55.912Z,72.82
2022-08-26T08:39:24.035Z,73.91
2022-08-26T08:42:23.742Z,73.45
2022-08-26T08:44:53.758Z,72.63
2022-08-26T08:47:30.656Z,72.46
2022-08-26T08:50:02.994Z,71.21
2022-08-26T08:52:33.599Z,72.06
2022-08-26T08:55:02.192Z,69.83
2022-08-26T08:57:40.731Z,71.14
2022-08-26T09:00:16.166Z,71.20
2022-08-26T09:02:53.647Z,70.73
2022-08-26T09:05:24.378Z,71.28
2022-08-26T09:07:57.234Z,71.79
2022-08-26T09:10:33.180Z,71.22
2022-08-26T09:13:05.940Z,70.62
2022-08-26T09:15:42.517Z,70.92
2022-08-26T09:18:24.834Z,70.46
2022-08-26T09:20:57.131Z,70.01
2022-08-26T09:23:25.414Z,68.77
2022-08-26T09:25:58.383Z,68.78
2022-08-26T09:28:28.883Z,68.09
2022-08-26T09:31:07.953Z,68.24
2022-08-26T09:33:40.547Z,68.65
2022-08-26T09:36:22.906Z,68.11
2022-08-26T09:38:53.479Z,65.95
2022-08-26T09:41:31.715Z,66.29
2022-08-26T09:44:18.970Z,67.06
2022-08-26T09:46:53.518Z,66.73
2022-08-26T09:49:35.119Z,66.60
2022-08-26T09:52:18.586Z,66.99
2022-08-26T09:54:58.382Z,65.80
2022-08-26T09:57:28.432Z,65.46
2022-08-26T09:59:57.158Z,65.01
2022-08-26T10:02:47.494Z,65.96
2022-08-26T10:13:47.242Z,64.60
2022-08-26T10:17:20.378Z,65.60
2022-08-26T10:24:08.363Z,65.61
2022-08-26T10:34:09.439Z,64.04
2022-08-26T10:41:03.847Z,62.67
2022-08-26T10:54:58.122Z,60.18
2022-08-26T10:58:26.433Z,59.77
2022-08-26T11:01:51.142Z,59.55
2022-08-26T11:05:11.538Z,61.15
2022-08-26T11:16:09.506Z,61.54
2022-08-26T11:19:59.026Z,62.18
2022-08-26T11:23:16.249Z,61.45
2022-08-26T11:26:49.429Z,60.70
2022-08-26T11:30:24.246Z,60.20
2022-08-26T11:37:16.967Z,59.35
2022-08-26T11:47:30.101Z,58.80
2022-08-26T11:50:52.412Z,57.28
2022-08-26T11:57:44.833Z,57.60
2022-08-26T12:22:39.893Z,54.67
2022-08-26T12:43:01.967Z,52.38
2022-08-26T12:50:09.891Z,51.94
2022-08-26T13:04:32.622Z,51.71
2022-08-26T13:15:24.791Z,54.23
2022-08-26T13:20:53.341Z,52.53
2022-08-26T13:35:29.676Z,49.89
2022-08-26T13:53:45.541Z,52.98
2022-08-26T13:56:11.737Z,52.93
2022-08-26T13:58:38.076Z,53.50
2022-08-26T14:01:04.325Z,53.03
2022-08-26T14:03:30.638Z,54.31
2022-08-26T14:05:56.926Z,61.40
2022-08-26T14:08:23.672Z,75.34
2022-08-26T14:13:43.011Z,76.19
2022-08-26T14:16:15.374Z,76.33
2022-08-26T14:18:46.180Z,77.88
2022-08-26T14:22:16.359Z,76.06
2022-08-26T14:26:03.994Z,74.32
2022-08-26T14:28:31.679Z,74.23
2022-08-26T14:30:59.592Z,73.94
2022-08-26T14:47:51.584Z,74.02
2022-08-26T14:50:22.643Z,73.99
2022-08-26T14:53:10.309Z,75.76
2022-08-26T14:55:40.943Z,74.06
2022-08-26T14:58:09.848Z,74.60
2022-08-26T15:00:37.660Z,74.26
2022-08-26T15:03:07.050Z,74.45
2022-08-26T15:05:35.173Z,74.95
2022-08-26T15:08:04.680Z,79.40
2022-08-26T15:10:32.276Z,79.82
2022-08-26T15:13:01.106Z,77.76
2022-08-26T15:15:29.431Z,78.95
2022-08-26T15:17:57.165Z,80.36
2022-08-26T15:20:26.107Z,79.90
2022-08-26T15:22:53.705Z,81.16
2022-08-26T15:25:21.447Z,80.40
2022-08-26T15:27:49.149Z,81.18
2022-08-26T15:30:18.233Z,81.11
2022-08-26T15:32:45.882Z,80.11
2022-08-26T15:35:13.478Z,79.42
2022-08-26T15:37:42.570Z,79.64
2022-08-26T15:40:11.322Z,79.20
2022-08-26T15:42:39.204Z,78.09
2022-08-26T15:45:07.713Z,76.36
2022-08-26T15:47:38.116Z,75.85
2022-08-26T15:50:25.207Z,75.49
2022-08-26T15:52:54.196Z,76.69
2022-08-26T15:55:23.255Z,76.61
2022-08-26T15:57:51.272Z,76.77
2022-08-26T16:00:20.597Z,76.96
2022-08-26T16:02:48.325Z,76.42
2022-08-26T16:05:15.873Z,77.89
2022-08-26T16:07:43.470Z,79.28
2022-08-26T16:10:12.575Z,78.99
2022-08-26T16:12:40.232Z,79.03
2022-08-26T16:15:09.223Z,76.80
2022-08-26T16:17:37.571Z,78.20
2022-08-26T16:20:06.325Z,78.30
2022-08-26T16:22:33.918Z,78.99
2022-08-26T16:25:01.487Z,78.68
2022-08-26T16:27:30.514Z,78.39
2022-08-26T16:29:58.033Z,77.77
2022-08-26T16:32:29.444Z,78.71
2022-08-26T16:34:59.233Z,79.68
2022-08-26T16:37:26.950Z,79.35
2022-08-26T16:39:54.527Z,79.54
2022-08-26T16:42:22.239Z,79.01
2022-08-26T16:44:51.874Z,78.32
2022-08-26T16:47:19.575Z,78.85
2022-08-26T16:49:47.548Z,79.31
2022-08-26T16:52:15.183Z,79.93
2022-08-26T16:54:43.557Z,78.38
2022-08-26T16:57:12.852Z,77.77
2022-08-26T16:59:41.415Z,78.96
2022-08-26T17:02:11.917Z,80.38
2022-08-26T17:04:41.161Z,81.13
2022-08-26T17:07:13.768Z,80.67
2022-08-26T17:09:41.580Z,78.57
2022-08-26T17:12:09.545Z,79.04
2022-08-26T17:14:37.201Z,77.94
2022-08-26T17:17:06.055Z,78.54
2022-08-26T17:19:40.719Z,76.27
2022-08-26T17:22:08.961Z,77.89
2022-08-26T17:24:37.285Z,78.29
2022-08-26T17:27:05.499Z,77.85
2022-08-26T17:29:33.075Z,78.88
2022-08-26T17:32:00.969Z,79.76
2022-08-26T17:34:28.622Z,78.58
2022-08-26T17:36:57.541Z,77.83
2022-08-26T17:39:25.112Z,78.64
2022-08-26T17:41:52.689Z,77.95
2022-08-26T17:44:20.253Z,79.16
2022-08-26T17:46:48.006Z,78.97
2022-08-26T17:49:15.691Z,76.77
2022-08-26T17:51:43.283Z,77.06
2022-08-26T17:54:12.210Z,76.18
2022-08-26T17:56:40.159Z,79.46
2022-08-26T17:59:08.981Z,77.65
2022-08-26T18:01:37.125Z,78.20
2022-08-26T18:04:05.042Z,80.07
2022-08-26T18:06:33.678Z,78.27
2022-08-26T18:09:01.806Z,76.11
2022-08-26T18:11:31.753Z,82.79
2022-08-26T18:13:59.980Z,79.04
2022-08-26T18:16:31.844Z,79.35
2022-08-26T18:19:00.678Z,79.80
2022-08-26T18:21:28.899Z,78.72
2022-08-26T18:23:56.938Z,78.16
2022-08-26T18:26:26.905Z,76.37
2022-08-26T18:28:56.355Z,78.45
2022-08-26T18:31:24.795Z,79.83
2022-08-26T18:33:53.065Z,78.19
2022-08-26T18:36:23.699Z,76.50
2022-08-26T18:38:52.292Z,78.65
2022-08-26T18:41:21.393Z,77.68
2022-08-26T18:43:50.553Z,78.43
2022-08-26T18:46:20.845Z,78.15
2022-08-26T18:48:49.055Z,76.48
2022-08-26T18:51:21.263Z,78.28
2022-08-26T18:53:48.881Z,78.14
2022-08-26T18:56:18.541Z,79.15
2022-08-26T18:58:46.933Z,76.04
2022-08-26T19:01:14.920Z,78.77
2022-08-26T19:03:44.524Z,77.78
2022-08-26T19:06:14.683Z,77.28
2022-08-26T19:08:44.564Z,76.53
2022-08-26T19:11:13.853Z,78.49
2022-08-26T19:13:42.069Z,76.97
2022-08-26T19:16:16.178Z,79.56
2022-08-26T19:18:45.557Z,77.13
2022-08-26T19:21:14.131Z,76.99
2022-08-26T19:23:41.959Z,77.57
2022-08-26T19:26:10.622Z,77.46
2022-08-26T19:28:40.765Z,77.59
2022-08-26T19:31:10.375Z,77.52
2022-08-26T19:33:39.524Z,77.03
2022-08-26T19:36:14.565Z,77.06
2022-08-26T19:38:43.265Z,77.79
2022-08-26T19:41:13.245Z,78.64
2022-08-26T19:43:40.802Z,76.57
2022-08-26T19:46:12.855Z,78.03
2022-08-26T19:48:40.545Z,79.91
2022-08-26T19:51:09.641Z,79.05
2022-08-26T19:53:37.394Z,78.63
2022-08-26T19:56:09.062Z,78.58
2022-08-26T19:58:36.622Z,76.68
2022-08-26T20:01:04.767Z,77.03
2022-08-26T20:03:33.378Z,76.74
2022-08-26T20:06:01.195Z,80.26
2022-08-26T20:08:30.293Z,76.87
2022-08-26T20:11:01.881Z,76.45
2022-08-26T20:13:29.760Z,77.75
2022-08-26T20:15:57.459Z,81.45
2022-08-26T20:18:42.856Z,83.02
2022-08-26T20:21:29.351Z,85.19
2022-08-26T20:24:01.379Z,89.10
2022-08-26T20:26:30.240Z,87.96
2022-08-26T20:28:58.782Z,89.33
2022-08-26T20:31:27.299Z,88.71
2022-08-26T20:33:55.533Z,87.13
2022-08-26T20:36:25.919Z,87.25
2022-08-26T20:38:54.556Z,88.93
2022-08-26T20:41:25.457Z,85.85
2022-08-26T20:43:53.267Z,85.89
2022-08-26T20:46:24.541Z,88.71
2022-08-26T20:48:53.275Z,90.30
2022-08-26T20:51:21.302Z,91.31
2022-08-26T20:53:49.112Z,90.13
2022-08-26T20:56:21.665Z,91.30
2022-08-26T20:58:51.689Z,88.72
2022-08-26T21:01:21.669Z,88.27
2022-08-26T21:03:51.981Z,89.36
2022-08-26T21:06:19.919Z,88.52
2022-08-26T21:08:48.508Z,90.20
